sensor_id;sensor_type;location;lat;lon;timestamp;P1;durP1;ratioP1;P2;durP2;ratioP2
71671;SDS011;62112;45.638;11.714;2022-08-19T00:00:37;6.03;;;2.00;;
71671;SDS011;62112;45.638;11.714;2022-08-19T00:03:04;9.63;;;2.10;;
71671;SDS011;62112;45.638;11.714;2022-08-19T00:05:30;7.10;;;2.00;;
71671;SDS011;62112;45.638;11.714;2022-08-19T00:07:57;6.90;;;2.17;;
71671;SDS011;62112;45.638;11.714;2022-08-19T00:10:23;6.33;;;2.10;;
71671;SDS011;62112;45.638;11.714;2022-08-19T00:12:49;5.75;;;1.90;;
71671;SDS011;62112;45.638;11.714;2022-08-19T00:15:17;7.57;;;2.03;;
71671;SDS011;62112;45.638;11.714;2022-08-19T00:17:45;8.25;;;2.13;;
71671;SDS011;62112;45.638;11.714;2022-08-19T00:20:12;6.38;;;2.03;;
71671;SDS011;62112;45.638;11.714;2022-08-19T00:22:43;6.97;;;2.10;;
71671;SDS011;62112;45.638;11.714;2022-08-19T00:25:10;7.78;;;2.08;;
71671;SDS011;62112;45.638;11.714;2022-08-19T00:27:37;6.28;;;2.05;;
71671;SDS011;62112;45.638;11.714;2022-08-19T00:30:04;6.38;;;2.03;;
71671;SDS011;62112;45.638;11.714;2022-08-19T00:32:31;5.05;;;1.90;;
71671;SDS011;62112;45.638;11.714;2022-08-19T00:34:59;6.77;;;1.93;;
71671;SDS011;62112;45.638;11.714;2022-08-19T00:37:26;6.40;;;1.85;;
71671;SDS011;62112;45.638;11.714;2022-08-19T00:39:52;7.43;;;2.08;;
71671;SDS011;62112;45.638;11.714;2022-08-19T00:42:19;8.07;;;1.90;;
71671;SDS011;62112;45.638;11.714;2022-08-19T00:44:46;6.45;;;2.03;;
71671;SDS011;62112;45.638;11.714;2022-08-19T00:47:12;6.60;;;1.73;;
71671;SDS011;62112;45.638;11.714;2022-08-19T00:49:42;5.97;;;1.90;;
71671;SDS011;62112;45.638;11.714;2022-08-19T00:52:18;6.85;;;2.28;;
71671;SDS011;62112;45.638;11.714;2022-08-19T00:54:53;5.55;;;1.70;;
71671;SDS011;62112;45.638;11.714;2022-08-19T00:57:23;5.32;;;1.63;;
71671;SDS011;62112;45.638;11.714;2022-08-19T00:59:58;6.27;;;2.00;;
71671;SDS011;62112;45.638;11.714;2022-08-19T01:02:25;5.60;;;1.80;;
71671;SDS011;62112;45.638;11.714;2022-08-19T01:04:52;5.72;;;1.80;;
71671;SDS011;62112;45.638;11.714;2022-08-19T01:07:18;5.82;;;1.80;;
71671;SDS011;62112;45.638;11.714;2022-08-19T01:09:44;7.53;;;2.00;;
71671;SDS011;62112;45.638;11.714;2022-08-19T01:12:10;8.23;;;2.00;;
71671;SDS011;62112;45.638;11.714;2022-08-19T01:14:37;6.07;;;1.88;;
71671;SDS011;62112;45.638;11.714;2022-08-19T01:17:05;6.03;;;1.95;;
71671;SDS011;62112;45.638;11.714;2022-08-19T01:19:36;6.88;;;1.90;;
71671;SDS011;62112;45.638;11.714;2022-08-19T01:24:49;5.60;;;1.97;;
71671;SDS011;62112;45.638;11.714;2022-08-19T01:27:16;6.75;;;1.80;;
71671;SDS011;62112;45.638;11.714;2022-08-19T01:29:43;6.57;;;1.90;;
71671;SDS011;62112;45.638;11.714;2022-08-19T01:32:15;6.38;;;2.08;;
71671;SDS011;62112;45.638;11.714;2022-08-19T01:34:42;6.15;;;1.88;;
71671;SDS011;62112;45.638;11.714;2022-08-19T01:37:12;6.33;;;1.77;;
71671;SDS011;62112;45.638;11.714;2022-08-19T01:39:40;7.57;;;2.10;;
71671;SDS011;62112;45.638;11.714;2022-08-19T01:42:06;7.13;;;2.00;;
71671;SDS011;62112;45.638;11.714;2022-08-19T01:44:36;7.78;;;2.00;;
71671;SDS011;62112;45.638;11.714;2022-08-19T01:47:03;6.13;;;2.20;;
71671;SDS011;62112;45.638;11.714;2022-08-19T01:49:29;5.57;;;1.80;;
71671;SDS011;62112;45.638;11.714;2022-08-19T01:51:56;7.35;;;2.00;;
71671;SDS011;62112;45.638;11.714;2022-08-19T01:54:22;5.97;;;1.90;;
71671;SDS011;62112;45.638;11.714;2022-08-19T01:56:50;7.32;;;2.00;;
71671;SDS011;62112;45.638;11.714;2022-08-19T01:59:18;7.50;;;2.03;;
71671;SDS011;62112;45.638;11.714;2022-08-19T02:01:46;7.83;;;2.07;;
71671;SDS011;62112;45.638;11.714;2022-08-19T02:04:12;7.25;;;2.10;;
71671;SDS011;62112;45.638;11.714;2022-08-19T02:06:39;6.38;;;1.98;;
71671;SDS011;62112;45.638;11.714;2022-08-19T02:09:05;7.57;;;2.00;;
71671;SDS011;62112;45.638;11.714;2022-08-19T02:11:33;6.87;;;1.80;;
71671;SDS011;62112;45.638;11.714;2022-08-19T02:14:01;6.05;;;1.98;;
71671;SDS011;62112;45.638;11.714;2022-08-19T02:16:29;7.05;;;1.90;;
71671;SDS011;62112;45.638;11.714;2022-08-19T02:18:55;6.07;;;1.73;;
71671;SDS011;62112;45.638;11.714;2022-08-19T02:21:22;6.50;;;1.90;;
71671;SDS011;62112;45.638;11.714;2022-08-19T02:23:49;5.73;;;1.80;;
71671;SDS011;62112;45.638;11.714;2022-08-19T02:26:15;7.45;;;1.90;;
71671;SDS011;62112;45.638;11.714;2022-08-19T02:28:42;6.55;;;2.10;;
71671;SDS011;62112;45.638;11.714;2022-08-19T02:31:14;5.55;;;1.88;;
71671;SDS011;62112;45.638;11.714;2022-08-19T02:33:45;6.28;;;1.90;;
71671;SDS011;62112;45.638;11.714;2022-08-19T02:36:12;7.60;;;2.00;;
71671;SDS011;62112;45.638;11.714;2022-08-19T02:38:40;5.75;;;1.80;;
71671;SDS011;62112;45.638;11.714;2022-08-19T02:41:07;6.25;;;2.00;;
71671;SDS011;62112;45.638;11.714;2022-08-19T02:43:39;5.82;;;1.90;;
71671;SDS011;62112;45.638;11.714;2022-08-19T02:46:15;8.30;;;2.00;;
71671;SDS011;62112;45.638;11.714;2022-08-19T02:48:45;7.93;;;1.90;;
71671;SDS011;62112;45.638;11.714;2022-08-19T02:51:18;6.75;;;2.20;;
71671;SDS011;62112;45.638;11.714;2022-08-19T02:53:49;7.05;;;1.92;;
71671;SDS011;62112;45.638;11.714;2022-08-19T02:56:16;7.63;;;1.75;;
71671;SDS011;62112;45.638;11.714;2022-08-19T02:58:43;6.40;;;1.85;;
71671;SDS011;62112;45.638;11.714;2022-08-19T03:01:09;5.90;;;1.80;;
71671;SDS011;62112;45.638;11.714;2022-08-19T03:03:36;5.80;;;1.70;;
71671;SDS011;62112;45.638;11.714;2022-08-19T03:06:03;7.15;;;1.90;;
71671;SDS011;62112;45.638;11.714;2022-08-19T03:08:32;5.22;;;1.92;;
71671;SDS011;62112;45.638;11.714;2022-08-19T03:10:58;7.13;;;1.95;;
71671;SDS011;62112;45.638;11.714;2022-08-19T03:13:24;6.20;;;1.83;;
71671;SDS011;62112;45.638;11.714;2022-08-19T03:15:50;5.78;;;1.65;;
71671;SDS011;62112;45.638;11.714;2022-08-19T03:18:16;7.95;;;2.00;;
71671;SDS011;62112;45.638;11.714;2022-08-19T03:20:43;6.82;;;2.00;;
71671;SDS011;62112;45.638;11.714;2022-08-19T03:23:10;5.40;;;1.70;;
71671;SDS011;62112;45.638;11.714;2022-08-19T03:25:41;6.93;;;2.10;;
71671;SDS011;62112;45.638;11.714;2022-08-19T03:28:12;5.88;;;1.67;;
71671;SDS011;62112;45.638;11.714;2022-08-19T03:30:40;7.68;;;1.67;;
71671;SDS011;62112;45.638;11.714;2022-08-19T03:33:07;8.00;;;2.08;;
71671;SDS011;62112;45.638;11.714;2022-08-19T03:35:34;7.87;;;2.07;;
71671;SDS011;62112;45.638;11.714;2022-08-19T03:38:04;4.25;;;1.50;;
71671;SDS011;62112;45.638;11.714;2022-08-19T03:40:32;5.32;;;1.70;;
71671;SDS011;62112;45.638;11.714;2022-08-19T03:43:01;5.72;;;1.70;;
71671;SDS011;62112;45.638;11.714;2022-08-19T03:45:27;7.63;;;1.95;;
71671;SDS011;62112;45.638;11.714;2022-08-19T03:47:53;7.17;;;1.87;;
71671;SDS011;62112;45.638;11.714;2022-08-19T03:50:20;5.55;;;1.80;;
71671;SDS011;62112;45.638;11.714;2022-08-19T03:52:49;5.95;;;1.70;;
71671;SDS011;62112;45.638;11.714;2022-08-19T03:55:16;5.45;;;1.70;;
71671;SDS011;62112;45.638;11.714;2022-08-19T03:57:43;4.77;;;1.40;;
71671;SDS011;62112;45.638;11.714;2022-08-19T04:00:10;5.78;;;1.70;;
71671;SDS011;62112;45.638;11.714;2022-08-19T04:02:37;4.70;;;1.58;;
71671;SDS011;62112;45.638;11.714;2022-08-19T04:05:02;5.38;;;1.70;;
71671;SDS011;62112;45.638;11.714;2022-08-19T04:07:28;5.67;;;1.57;;
71671;SDS011;62112;45.638;11.714;2022-08-19T04:09:54;5.43;;;1.50;;
71671;SDS011;62112;45.638;11.714;2022-08-19T04:12:20;5.15;;;1.70;;
71671;SDS011;62112;45.638;11.714;2022-08-19T04:14:46;6.67;;;1.83;;
71671;SDS011;62112;45.638;11.714;2022-08-19T04:17:12;5.03;;;1.73;;
71671;SDS011;62112;45.638;11.714;2022-08-19T04:19:39;6.82;;;1.60;;
71671;SDS011;62112;45.638;11.714;2022-08-19T04:22:05;5.40;;;1.45;;
71671;SDS011;62112;45.638;11.714;2022-08-19T04:24:32;4.75;;;1.50;;
71671;SDS011;62112;45.638;11.714;2022-08-19T04:27:02;4.33;;;1.37;;
71671;SDS011;62112;45.638;11.714;2022-08-19T04:29:29;5.43;;;1.42;;
71671;SDS011;62112;45.638;11.714;2022-08-19T04:31:55;6.78;;;1.70;;
71671;SDS011;62112;45.638;11.714;2022-08-19T04:34:23;6.70;;;1.50;;
71671;SDS011;62112;45.638;11.714;2022-08-19T04:36:54;5.55;;;1.40;;
71671;SDS011;62112;45.638;11.714;2022-08-19T04:39:23;4.07;;;1.40;;
71671;SDS011;62112;45.638;11.714;2022-08-19T04:42:15;5.50;;;1.50;;
71671;SDS011;62112;45.638;11.714;2022-08-19T04:45:00;4.68;;;1.55;;
71671;SDS011;62112;45.638;11.714;2022-08-19T04:47:29;3.72;;;1.20;;
71671;SDS011;62112;45.638;11.714;2022-08-19T04:49:58;5.40;;;1.75;;
71671;SDS011;62112;45.638;11.714;2022-08-19T04:52:24;11.83;;;1.70;;
71671;SDS011;62112;45.638;11.714;2022-08-19T04:54:49;7.55;;;1.60;;
71671;SDS011;62112;45.638;11.714;2022-08-19T04:57:15;6.38;;;1.83;;
71671;SDS011;62112;45.638;11.714;2022-08-19T04:59:41;5.83;;;1.70;;
71671;SDS011;62112;45.638;11.714;2022-08-19T05:02:08;5.43;;;1.70;;
71671;SDS011;62112;45.638;11.714;2022-08-19T05:04:34;5.20;;;1.50;;
71671;SDS011;62112;45.638;11.714;2022-08-19T05:07:03;6.97;;;1.85;;
71671;SDS011;62112;45.638;11.714;2022-08-19T05:09:30;6.77;;;1.77;;
71671;SDS011;62112;45.638;11.714;2022-08-19T05:11:56;6.32;;;1.65;;
71671;SDS011;62112;45.638;11.714;2022-08-19T05:14:22;5.70;;;1.70;;
71671;SDS011;62112;45.638;11.714;2022-08-19T05:16:48;5.97;;;1.90;;
71671;SDS011;62112;45.638;11.714;2022-08-19T05:19:14;5.73;;;1.83;;
71671;SDS011;62112;45.638;11.714;2022-08-19T05:22:00;5.35;;;1.30;;
71671;SDS011;62112;45.638;11.714;2022-08-19T05:24:44;5.82;;;1.75;;
71671;SDS011;62112;45.638;11.714;2022-08-19T05:27:10;6.22;;;1.45;;
71671;SDS011;62112;45.638;11.714;2022-08-19T05:29:36;4.13;;;1.23;;
71671;SDS011;62112;45.638;11.714;2022-08-19T05:32:03;5.88;;;1.70;;
71671;SDS011;62112;45.638;11.714;2022-08-19T05:34:30;6.78;;;1.50;;
71671;SDS011;62112;45.638;11.714;2022-08-19T05:36:58;4.57;;;1.30;;
71671;SDS011;62112;45.638;11.714;2022-08-19T05:39:27;6.33;;;1.60;;
71671;SDS011;62112;45.638;11.714;2022-08-19T05:41:56;4.88;;;1.30;;
71671;SDS011;62112;45.638;11.714;2022-08-19T05:44:26;5.88;;;1.50;;
71671;SDS011;62112;45.638;11.714;2022-08-19T05:46:56;4.72;;;1.40;;
71671;SDS011;62112;45.638;11.714;2022-08-19T05:49:25;5.05;;;1.50;;
71671;SDS011;62112;45.638;11.714;2022-08-19T05:51:52;6.40;;;1.57;;
71671;SDS011;62112;45.638;11.714;2022-08-19T05:54:19;5.65;;;1.50;;
71671;SDS011;62112;45.638;11.714;2022-08-19T05:56:46;6.05;;;1.80;;
71671;SDS011;62112;45.638;11.714;2022-08-19T05:59:13;5.13;;;1.60;;
71671;SDS011;62112;45.638;11.714;2022-08-19T06:01:42;4.40;;;1.50;;
71671;SDS011;62112;45.638;11.714;2022-08-19T06:04:09;6.83;;;1.77;;
71671;SDS011;62112;45.638;11.714;2022-08-19T06:06:35;4.60;;;1.30;;
71671;SDS011;62112;45.638;11.714;2022-08-19T06:09:02;5.22;;;1.58;;
71671;SDS011;62112;45.638;11.714;2022-08-19T06:11:36;4.70;;;1.52;;
71671;SDS011;62112;45.638;11.714;2022-08-19T06:14:24;5.57;;;1.60;;
71671;SDS011;62112;45.638;11.714;2022-08-19T06:16:54;5.75;;;1.60;;
71671;SDS011;62112;45.638;11.714;2022-08-19T06:19:31;6.22;;;1.65;;
71671;SDS011;62112;45.638;11.714;2022-08-19T06:21:59;6.40;;;1.77;;
71671;SDS011;62112;45.638;11.714;2022-08-19T06:24:32;6.63;;;1.80;;
71671;SDS011;62112;45.638;11.714;2022-08-19T06:27:04;6.67;;;1.73;;
71671;SDS011;62112;45.638;11.714;2022-08-19T06:29:31;5.97;;;1.80;;
71671;SDS011;62112;45.638;11.714;2022-08-19T06:31:59;7.53;;;1.77;;
71671;SDS011;62112;45.638;11.714;2022-08-19T06:34:27;6.85;;;1.50;;
71671;SDS011;62112;45.638;11.714;2022-08-19T06:36:56;7.00;;;2.08;;
71671;SDS011;62112;45.638;11.714;2022-08-19T06:39:27;7.97;;;1.50;;
71671;SDS011;62112;45.638;11.714;2022-08-19T06:41:58;6.68;;;1.60;;
71671;SDS011;62112;45.638;11.714;2022-08-19T06:44:27;6.07;;;1.80;;
71671;SDS011;62112;45.638;11.714;2022-08-19T06:47:05;6.82;;;1.80;;
71671;SDS011;62112;45.638;11.714;2022-08-19T06:49:33;6.35;;;1.77;;
71671;SDS011;62112;45.638;11.714;2022-08-19T06:52:00;5.57;;;1.57;;
71671;SDS011;62112;45.638;11.714;2022-08-19T06:54:26;6.30;;;1.67;;
71671;SDS011;62112;45.638;11.714;2022-08-19T06:56:57;5.40;;;1.80;;
71671;SDS011;62112;45.638;11.714;2022-08-19T06:59:27;6.70;;;1.83;;
71671;SDS011;62112;45.638;11.714;2022-08-19T07:01:57;6.82;;;1.60;;
71671;SDS011;62112;45.638;11.714;2022-08-19T07:04:26;6.53;;;1.60;;
71671;SDS011;62112;45.638;11.714;2022-08-19T07:07:13;7.10;;;1.70;;
71671;SDS011;62112;45.638;11.714;2022-08-19T07:09:41;6.05;;;1.60;;
71671;SDS011;62112;45.638;11.714;2022-08-19T07:12:09;5.20;;;1.60;;
71671;SDS011;62112;45.638;11.714;2022-08-19T07:14:37;6.60;;;1.70;;
71671;SDS011;62112;45.638;11.714;2022-08-19T07:17:07;6.07;;;1.70;;
71671;SDS011;62112;45.638;11.714;2022-08-19T07:19:36;4.93;;;1.60;;
71671;SDS011;62112;45.638;11.714;2022-08-19T07:22:04;5.60;;;1.75;;
71671;SDS011;62112;45.638;11.714;2022-08-19T07:24:32;7.63;;;1.98;;
71671;SDS011;62112;45.638;11.714;2022-08-19T07:26:59;6.10;;;1.60;;
71671;SDS011;62112;45.638;11.714;2022-08-19T07:29:28;5.63;;;1.60;;
71671;SDS011;62112;45.638;11.714;2022-08-19T07:31:56;6.65;;;1.70;;
71671;SDS011;62112;45.638;11.714;2022-08-19T07:34:24;4.95;;;1.42;;
71671;SDS011;62112;45.638;11.714;2022-08-19T07:36:52;6.18;;;1.50;;
71671;SDS011;62112;45.638;11.714;2022-08-19T07:39:25;5.32;;;1.50;;
71671;SDS011;62112;45.638;11.714;2022-08-19T07:41:54;5.80;;;1.60;;
71671;SDS011;62112;45.638;11.714;2022-08-19T07:44:23;6.20;;;1.80;;
71671;SDS011;62112;45.638;11.714;2022-08-19T07:46:50;6.97;;;1.75;;
71671;SDS011;62112;45.638;11.714;2022-08-19T07:49:19;4.07;;;1.50;;
71671;SDS011;62112;45.638;11.714;2022-08-19T07:51:48;5.55;;;1.50;;
71671;SDS011;62112;45.638;11.714;2022-08-19T07:54:18;4.70;;;1.70;;
71671;SDS011;62112;45.638;11.714;2022-08-19T07:56:46;6.40;;;1.50;;
71671;SDS011;62112;45.638;11.714;2022-08-19T07:59:12;6.57;;;1.60;;
71671;SDS011;62112;45.638;11.714;2022-08-19T08:01:38;5.75;;;1.60;;
71671;SDS011;62112;45.638;11.714;2022-08-19T08:04:05;5.30;;;1.80;;
71671;SDS011;62112;45.638;11.714;2022-08-19T08:06:51;5.23;;;1.60;;
71671;SDS011;62112;45.638;11.714;2022-08-19T08:09:37;5.03;;;1.80;;
71671;SDS011;62112;45.638;11.714;2022-08-19T08:12:08;6.35;;;1.80;;
71671;SDS011;62112;45.638;11.714;2022-08-19T08:14:41;6.53;;;1.70;;
71671;SDS011;62112;45.638;11.714;2022-08-19T08:17:10;5.70;;;1.67;;
71671;SDS011;62112;45.638;11.714;2022-08-19T08:19:37;6.43;;;1.50;;
71671;SDS011;62112;45.638;11.714;2022-08-19T08:22:06;6.50;;;1.75;;
71671;SDS011;62112;45.638;11.714;2022-08-19T08:24:33;6.47;;;1.60;;
71671;SDS011;62112;45.638;11.714;2022-08-19T08:27:01;5.32;;;1.50;;
71671;SDS011;62112;45.638;11.714;2022-08-19T08:29:29;5.88;;;1.60;;
71671;SDS011;62112;45.638;11.714;2022-08-19T08:31:55;5.07;;;1.63;;
71671;SDS011;62112;45.638;11.714;2022-08-19T08:34:22;5.03;;;1.40;;
71671;SDS011;62112;45.638;11.714;2022-08-19T08:36:48;5.15;;;1.60;;
71671;SDS011;62112;45.638;11.714;2022-08-19T08:39:17;4.78;;;1.40;;
71671;SDS011;62112;45.638;11.714;2022-08-19T08:47:11;5.40;;;1.45;;
71671;SDS011;62112;45.638;11.714;2022-08-19T08:52:25;4.50;;;1.55;;
71671;SDS011;62112;45.638;11.714;2022-08-19T08:55:03;7.03;;;1.45;;
71671;SDS011;62112;45.638;11.714;2022-08-19T08:57:35;4.93;;;1.57;;
71671;SDS011;62112;45.638;11.714;2022-08-19T09:03:21;5.35;;;1.60;;
71671;SDS011;62112;45.638;11.714;2022-08-19T09:08:30;5.07;;;1.48;;
71671;SDS011;62112;45.638;11.714;2022-08-19T09:11:03;5.57;;;1.70;;
71671;SDS011;62112;45.638;11.714;2022-08-19T09:13:39;5.68;;;1.48;;
71671;SDS011;62112;45.638;11.714;2022-08-19T09:16:29;3.75;;;1.50;;
71671;SDS011;62112;45.638;11.714;2022-08-19T09:19:05;4.75;;;1.50;;
71671;SDS011;62112;45.638;11.714;2022-08-19T09:21:33;8.85;;;1.45;;
71671;SDS011;62112;45.638;11.714;2022-08-19T09:24:02;5.70;;;1.70;;
71671;SDS011;62112;45.638;11.714;2022-08-19T09:26:30;7.57;;;1.65;;
71671;SDS011;62112;45.638;11.714;2022-08-19T09:28:58;6.00;;;1.55;;
71671;SDS011;62112;45.638;11.714;2022-08-19T09:31:27;5.13;;;1.48;;
71671;SDS011;62112;45.638;11.714;2022-08-19T09:33:54;5.40;;;1.60;;
71671;SDS011;62112;45.638;11.714;2022-08-19T09:36:22;7.50;;;1.63;;
71671;SDS011;62112;45.638;11.714;2022-08-19T09:38:50;6.10;;;1.73;;
71671;SDS011;62112;45.638;11.714;2022-08-19T09:41:18;5.15;;;1.67;;
71671;SDS011;62112;45.638;11.714;2022-08-19T09:43:47;5.30;;;1.80;;
71671;SDS011;62112;45.638;11.714;2022-08-19T09:46:17;5.93;;;1.73;;
71671;SDS011;62112;45.638;11.714;2022-08-19T09:48:46;7.20;;;1.60;;
71671;SDS011;62112;45.638;11.714;2022-08-19T09:51:18;5.47;;;1.70;;
71671;SDS011;62112;45.638;11.714;2022-08-19T09:53:47;6.45;;;1.80;;
71671;SDS011;62112;45.638;11.714;2022-08-19T09:56:18;6.38;;;1.70;;
71671;SDS011;62112;45.638;11.714;2022-08-19T09:58:45;5.38;;;1.73;;
71671;SDS011;62112;45.638;11.714;2022-08-19T10:01:21;4.87;;;1.60;;
71671;SDS011;62112;45.638;11.714;2022-08-19T10:03:50;5.22;;;1.50;;
71671;SDS011;62112;45.638;11.714;2022-08-19T10:06:18;6.78;;;1.55;;
71671;SDS011;62112;45.638;11.714;2022-08-19T10:08:45;4.07;;;1.30;;
71671;SDS011;62112;45.638;11.714;2022-08-19T10:11:12;5.70;;;1.52;;
71671;SDS011;62112;45.638;11.714;2022-08-19T10:13:41;5.10;;;1.47;;
71671;SDS011;62112;45.638;11.714;2022-08-19T10:16:10;5.80;;;1.50;;
71671;SDS011;62112;45.638;11.714;2022-08-19T10:18:41;4.28;;;1.23;;
71671;SDS011;62112;45.638;11.714;2022-08-19T10:23:50;5.07;;;1.50;;
71671;SDS011;62112;45.638;11.714;2022-08-19T10:26:22;5.07;;;1.37;;
71671;SDS011;62112;45.638;11.714;2022-08-19T10:28:50;4.72;;;1.48;;
71671;SDS011;62112;45.638;11.714;2022-08-19T10:31:17;4.47;;;1.75;;
71671;SDS011;62112;45.638;11.714;2022-08-19T10:33:47;4.85;;;1.60;;
71671;SDS011;62112;45.638;11.714;2022-08-19T10:36:15;5.22;;;1.63;;
71671;SDS011;62112;45.638;11.714;2022-08-19T10:38:45;6.10;;;1.50;;
71671;SDS011;62112;45.638;11.714;2022-08-19T10:41:15;6.07;;;1.52;;
71671;SDS011;62112;45.638;11.714;2022-08-19T10:43:41;5.53;;;1.60;;
71671;SDS011;62112;45.638;11.714;2022-08-19T10:46:10;6.38;;;1.65;;
71671;SDS011;62112;45.638;11.714;2022-08-19T10:48:38;4.88;;;1.60;;
71671;SDS011;62112;45.638;11.714;2022-08-19T10:51:04;6.00;;;1.70;;
71671;SDS011;62112;45.638;11.714;2022-08-19T10:53:49;5.05;;;1.70;;
71671;SDS011;62112;45.638;11.714;2022-08-19T10:56:16;6.50;;;1.80;;
71671;SDS011;62112;45.638;11.714;2022-08-19T10:59:00;4.57;;;1.50;;
71671;SDS011;62112;45.638;11.714;2022-08-19T11:01:28;7.30;;;1.75;;
71671;SDS011;62112;45.638;11.714;2022-08-19T11:03:55;7.67;;;1.90;;
71671;SDS011;62112;45.638;11.714;2022-08-19T11:06:25;7.55;;;1.80;;
71671;SDS011;62112;45.638;11.714;2022-08-19T11:08:51;7.35;;;1.80;;
71671;SDS011;62112;45.638;11.714;2022-08-19T11:11:19;5.15;;;1.58;;
71671;SDS011;62112;45.638;11.714;2022-08-19T11:13:46;5.03;;;1.58;;
71671;SDS011;62112;45.638;11.714;2022-08-19T11:16:21;4.77;;;1.60;;
71671;SDS011;62112;45.638;11.714;2022-08-19T11:18:50;5.03;;;1.50;;
71671;SDS011;62112;45.638;11.714;2022-08-19T11:21:20;4.05;;;1.42;;
71671;SDS011;62112;45.638;11.714;2022-08-19T11:23:47;5.07;;;1.50;;
71671;SDS011;62112;45.638;11.714;2022-08-19T11:26:18;7.32;;;1.60;;
71671;SDS011;62112;45.638;11.714;2022-08-19T11:28:46;5.03;;;1.70;;
71671;SDS011;62112;45.638;11.714;2022-08-19T11:31:16;5.65;;;1.50;;
71671;SDS011;62112;45.638;11.714;2022-08-19T11:33:44;5.78;;;1.40;;
71671;SDS011;62112;45.638;11.714;2022-08-19T11:36:11;5.60;;;1.58;;
71671;SDS011;62112;45.638;11.714;2022-08-19T11:38:37;5.32;;;1.50;;
71671;SDS011;62112;45.638;11.714;2022-08-19T11:41:05;6.60;;;1.80;;
71671;SDS011;62112;45.638;11.714;2022-08-19T11:43:32;4.53;;;1.85;;
71671;SDS011;62112;45.638;11.714;2022-08-19T11:45:59;5.03;;;1.77;;
71671;SDS011;62112;45.638;11.714;2022-08-19T11:48:28;5.72;;;1.80;;
71671;SDS011;62112;45.638;11.714;2022-08-19T11:50:54;9.17;;;1.90;;
71671;SDS011;62112;45.638;11.714;2022-08-19T11:53:21;5.43;;;1.70;;
71671;SDS011;62112;45.638;11.714;2022-08-19T11:55:48;4.97;;;1.70;;
71671;SDS011;62112;45.638;11.714;2022-08-19T11:58:15;5.60;;;1.60;;
71671;SDS011;62112;45.638;11.714;2022-08-19T12:00:43;5.15;;;1.60;;
71671;SDS011;62112;45.638;11.714;2022-08-19T12:03:10;5.43;;;1.70;;
71671;SDS011;62112;45.638;11.714;2022-08-19T12:05:40;6.40;;;1.70;;
71671;SDS011;62112;45.638;11.714;2022-08-19T12:08:06;6.25;;;1.60;;
71671;SDS011;62112;45.638;11.714;2022-08-19T12:10:32;4.28;;;1.50;;
71671;SDS011;62112;45.638;11.714;2022-08-19T12:12:59;4.70;;;1.50;;
71671;SDS011;62112;45.638;11.714;2022-08-19T12:15:26;4.07;;;1.70;;
71671;SDS011;62112;45.638;11.714;2022-08-19T12:17:54;7.20;;;1.60;;
71671;SDS011;62112;45.638;11.714;2022-08-19T12:20:22;5.35;;;1.70;;
71671;SDS011;62112;45.638;11.714;2022-08-19T12:22:49;5.68;;;1.60;;
71671;SDS011;62112;45.638;11.714;2022-08-19T12:25:15;5.78;;;1.38;;
71671;SDS011;62112;45.638;11.714;2022-08-19T12:27:41;4.97;;;1.50;;
71671;SDS011;62112;45.638;11.714;2022-08-19T12:30:09;6.45;;;1.30;;
71671;SDS011;62112;45.638;11.714;2022-08-19T12:32:36;5.35;;;1.40;;
71671;SDS011;62112;45.638;11.714;2022-08-19T12:35:03;4.28;;;1.30;;
71671;SDS011;62112;45.638;11.714;2022-08-19T12:37:29;5.22;;;1.52;;
71671;SDS011;62112;45.638;11.714;2022-08-19T12:39:56;5.83;;;1.37;;
71671;SDS011;62112;45.638;11.714;2022-08-19T12:42:22;4.32;;;1.40;;
71671;SDS011;62112;45.638;11.714;2022-08-19T12:44:49;4.28;;;1.25;;
71671;SDS011;62112;45.638;11.714;2022-08-19T12:47:15;4.20;;;1.27;;
71671;SDS011;62112;45.638;11.714;2022-08-19T12:49:42;3.40;;;1.13;;
71671;SDS011;62112;45.638;11.714;2022-08-19T12:52:09;3.03;;;1.20;;
71671;SDS011;62112;45.638;11.714;2022-08-19T12:54:36;3.97;;;1.27;;
71671;SDS011;62112;45.638;11.714;2022-08-19T12:57:06;3.08;;;1.10;;
71671;SDS011;62112;45.638;11.714;2022-08-19T12:59:33;4.90;;;1.35;;
71671;SDS011;62112;45.638;11.714;2022-08-19T13:02:01;5.97;;;1.20;;
71671;SDS011;62112;45.638;11.714;2022-08-19T13:04:29;3.40;;;1.20;;
71671;SDS011;62112;45.638;11.714;2022-08-19T13:06:55;3.58;;;1.38;;
71671;SDS011;62112;45.638;11.714;2022-08-19T13:09:21;4.18;;;1.23;;
71671;SDS011;62112;45.638;11.714;2022-08-19T13:11:47;4.53;;;1.20;;
71671;SDS011;62112;45.638;11.714;2022-08-19T13:14:13;3.47;;;1.20;;
71671;SDS011;62112;45.638;11.714;2022-08-19T13:16:39;4.72;;;1.20;;
71671;SDS011;62112;45.638;11.714;2022-08-19T13:19:05;3.33;;;1.10;;
71671;SDS011;62112;45.638;11.714;2022-08-19T13:21:32;5.40;;;1.10;;
71671;SDS011;62112;45.638;11.714;2022-08-19T13:23:58;4.35;;;1.20;;
71671;SDS011;62112;45.638;11.714;2022-08-19T13:26:24;4.78;;;1.20;;
71671;SDS011;62112;45.638;11.714;2022-08-19T13:28:50;4.43;;;1.20;;
71671;SDS011;62112;45.638;11.714;2022-08-19T13:31:36;3.10;;;1.10;;
71671;SDS011;62112;45.638;11.714;2022-08-19T13:34:31;4.47;;;1.40;;
71671;SDS011;62112;45.638;11.714;2022-08-19T13:37:00;4.80;;;1.17;;
71671;SDS011;62112;45.638;11.714;2022-08-19T13:39:28;3.47;;;1.15;;
71671;SDS011;62112;45.638;11.714;2022-08-19T13:41:57;4.50;;;1.30;;
71671;SDS011;62112;45.638;11.714;2022-08-19T13:44:25;5.73;;;1.10;;
71671;SDS011;62112;45.638;11.714;2022-08-19T13:46:54;3.47;;;1.10;;
71671;SDS011;62112;45.638;11.714;2022-08-19T13:49:25;3.60;;;1.30;;
71671;SDS011;62112;45.638;11.714;2022-08-19T13:51:55;3.90;;;1.20;;
71671;SDS011;62112;45.638;11.714;2022-08-19T13:54:20;4.20;;;1.23;;
71671;SDS011;62112;45.638;11.714;2022-08-19T13:56:46;4.65;;;1.35;;
71671;SDS011;62112;45.638;11.714;2022-08-19T13:59:13;3.55;;;1.27;;
71671;SDS011;62112;45.638;11.714;2022-08-19T14:01:39;4.18;;;1.38;;
71671;SDS011;62112;45.638;11.714;2022-08-19T14:04:06;3.63;;;1.33;;
71671;SDS011;62112;45.638;11.714;2022-08-19T14:06:33;3.03;;;1.20;;
71671;SDS011;62112;45.638;11.714;2022-08-19T14:08:59;4.05;;;1.40;;
71671;SDS011;62112;45.638;11.714;2022-08-19T14:11:27;4.53;;;1.23;;
71671;SDS011;62112;45.638;11.714;2022-08-19T14:13:53;4.75;;;1.50;;
71671;SDS011;62112;45.638;11.714;2022-08-19T14:16:19;5.00;;;1.40;;
71671;SDS011;62112;45.638;11.714;2022-08-19T14:18:46;5.65;;;1.42;;
71671;SDS011;62112;45.638;11.714;2022-08-19T14:21:21;4.47;;;1.20;;
71671;SDS011;62112;45.638;11.714;2022-08-19T14:23:48;2.95;;;1.35;;
71671;SDS011;62112;45.638;11.714;2022-08-19T14:26:15;4.20;;;1.20;;
71671;SDS011;62112;45.638;11.714;2022-08-19T14:28:43;5.18;;;1.33;;
71671;SDS011;62112;45.638;11.714;2022-08-19T14:31:11;3.83;;;1.38;;
71671;SDS011;62112;45.638;11.714;2022-08-19T14:33:38;4.45;;;1.40;;
71671;SDS011;62112;45.638;11.714;2022-08-19T14:36:05;7.38;;;1.52;;
71671;SDS011;62112;45.638;11.714;2022-08-19T14:38:32;3.57;;;1.30;;
71671;SDS011;62112;45.638;11.714;2022-08-19T14:43:35;5.22;;;1.25;;
71671;SDS011;62112;45.638;11.714;2022-08-19T14:46:00;4.85;;;1.30;;
71671;SDS011;62112;45.638;11.714;2022-08-19T14:48:26;5.27;;;1.40;;
71671;SDS011;62112;45.638;11.714;2022-08-19T14:50:52;5.50;;;1.30;;
71671;SDS011;62112;45.638;11.714;2022-08-19T14:53:18;4.90;;;1.42;;
71671;SDS011;62112;45.638;11.714;2022-08-19T14:55:44;4.03;;;1.30;;
71671;SDS011;62112;45.638;11.714;2022-08-19T14:58:11;4.65;;;1.30;;
71671;SDS011;62112;45.638;11.714;2022-08-19T15:00:37;4.97;;;1.40;;
71671;SDS011;62112;45.638;11.714;2022-08-19T15:03:03;3.45;;;1.30;;